Terminal Aerodrome Forecast
Issued by NWS

Home | Current Version | Previous Version | Text Only | Print | Product List | Glossary On
Versions: 1 2 3 4 5 6 7 8 9 10 11 12 13 14 15 16 17 18 19 20 21
000
FTUS41 KBGM 261131
TAFRME
TAF
KRME 261131Z 2612/2712 VRB03KT P6SM BKN080
     FM261500 27007KT P6SM BKN050
     FM261800 27010KT P6SM -SHRA BKN040
     FM270000 VRB03KT P6SM BKN070=

USA.gov is the U.S. government's official web portal to all federal, state and local government web resources and services.